sensor_id;sensor_type;location;lat;lon;timestamp;P1;durP1;ratioP1;P2;durP2;ratioP2
78844;SDS011;68195;50.854;2.860;2023-06-10T00:00:07;8.35;;;6.50;;
78844;SDS011;68195;50.854;2.860;2023-06-10T00:02:39;8.32;;;6.55;;
78844;SDS011;68195;50.854;2.860;2023-06-10T00:05:05;7.45;;;6.05;;
78844;SDS011;68195;50.854;2.860;2023-06-10T00:07:32;8.73;;;6.43;;
78844;SDS011;68195;50.854;2.860;2023-06-10T00:10:03;9.80;;;6.60;;
78844;SDS011;68195;50.854;2.860;2023-06-10T00:12:32;10.52;;;7.00;;
78844;SDS011;68195;50.854;2.860;2023-06-10T00:15:04;8.23;;;6.57;;
78844;SDS011;68195;50.854;2.860;2023-06-10T00:17:33;6.95;;;6.30;;
78844;SDS011;68195;50.854;2.860;2023-06-10T00:20:03;7.95;;;7.15;;
78844;SDS011;68195;50.854;2.860;2023-06-10T00:22:34;10.38;;;6.57;;
78844;SDS011;68195;50.854;2.860;2023-06-10T00:25:02;8.23;;;7.38;;
78844;SDS011;68195;50.854;2.860;2023-06-10T00:27:29;7.57;;;6.47;;
78844;SDS011;68195;50.854;2.860;2023-06-10T00:30:02;9.18;;;7.18;;
78844;SDS011;68195;50.854;2.860;2023-06-10T00:32:32;9.38;;;6.75;;
78844;SDS011;68195;50.854;2.860;2023-06-10T00:35:01;8.38;;;6.82;;
78844;SDS011;68195;50.854;2.860;2023-06-10T00:37:29;7.78;;;6.47;;
78844;SDS011;68195;50.854;2.860;2023-06-10T00:39:55;8.18;;;6.63;;
78844;SDS011;68195;50.854;2.860;2023-06-10T00:42:23;7.70;;;6.35;;
78844;SDS011;68195;50.854;2.860;2023-06-10T00:44:50;8.18;;;6.72;;
78844;SDS011;68195;50.854;2.860;2023-06-10T00:47:16;12.35;;;7.50;;
78844;SDS011;68195;50.854;2.860;2023-06-10T00:49:41;8.52;;;6.43;;
78844;SDS011;68195;50.854;2.860;2023-06-10T00:52:07;9.30;;;6.22;;
78844;SDS011;68195;50.854;2.860;2023-06-10T00:54:36;8.07;;;6.38;;
78844;SDS011;68195;50.854;2.860;2023-06-10T00:57:02;9.32;;;6.97;;
78844;SDS011;68195;50.854;2.860;2023-06-10T00:59:28;7.95;;;6.75;;
78844;SDS011;68195;50.854;2.860;2023-06-10T01:01:54;9.88;;;7.50;;
78844;SDS011;68195;50.854;2.860;2023-06-10T01:04:23;9.15;;;6.97;;
78844;SDS011;68195;50.854;2.860;2023-06-10T01:09:42;8.70;;;7.10;;
78844;SDS011;68195;50.854;2.860;2023-06-10T01:14:52;8.30;;;7.25;;
78844;SDS011;68195;50.854;2.860;2023-06-10T01:17:20;9.05;;;7.05;;
78844;SDS011;68195;50.854;2.860;2023-06-10T01:19:52;8.75;;;6.22;;
78844;SDS011;68195;50.854;2.860;2023-06-10T01:22:22;9.82;;;6.78;;
78844;SDS011;68195;50.854;2.860;2023-06-10T01:24:49;8.70;;;7.03;;
78844;SDS011;68195;50.854;2.860;2023-06-10T01:27:19;8.93;;;6.72;;
78844;SDS011;68195;50.854;2.860;2023-06-10T01:29:54;7.72;;;6.93;;
78844;SDS011;68195;50.854;2.860;2023-06-10T01:32:29;9.00;;;6.78;;
78844;SDS011;68195;50.854;2.860;2023-06-10T01:35:04;7.07;;;6.30;;
78844;SDS011;68195;50.854;2.860;2023-06-10T01:37:34;8.98;;;6.63;;
78844;SDS011;68195;50.854;2.860;2023-06-10T01:40:03;9.60;;;8.13;;
78844;SDS011;68195;50.854;2.860;2023-06-10T01:42:31;8.00;;;6.97;;
78844;SDS011;68195;50.854;2.860;2023-06-10T01:44:57;8.38;;;7.53;;
78844;SDS011;68195;50.854;2.860;2023-06-10T01:47:28;10.32;;;7.25;;
78844;SDS011;68195;50.854;2.860;2023-06-10T01:49:53;9.00;;;7.25;;
78844;SDS011;68195;50.854;2.860;2023-06-10T01:52:19;7.93;;;7.13;;
78844;SDS011;68195;50.854;2.860;2023-06-10T01:54:44;9.30;;;7.30;;
78844;SDS011;68195;50.854;2.860;2023-06-10T01:57:11;9.82;;;7.88;;
78844;SDS011;68195;50.854;2.860;2023-06-10T01:59:39;8.48;;;7.55;;
78844;SDS011;68195;50.854;2.860;2023-06-10T02:02:09;9.20;;;8.10;;
78844;SDS011;68195;50.854;2.860;2023-06-10T02:04:37;8.60;;;7.72;;
78844;SDS011;68195;50.854;2.860;2023-06-10T02:07:06;10.88;;;7.80;;
78844;SDS011;68195;50.854;2.860;2023-06-10T02:09:33;8.50;;;7.50;;
78844;SDS011;68195;50.854;2.860;2023-06-10T02:12:01;12.88;;;7.30;;
78844;SDS011;68195;50.854;2.860;2023-06-10T02:14:33;10.70;;;7.28;;
78844;SDS011;68195;50.854;2.860;2023-06-10T02:16:59;8.32;;;7.45;;
78844;SDS011;68195;50.854;2.860;2023-06-10T02:19:27;9.50;;;7.97;;
78844;SDS011;68195;50.854;2.860;2023-06-10T02:21:52;8.15;;;7.28;;
78844;SDS011;68195;50.854;2.860;2023-06-10T02:24:18;8.50;;;7.60;;
78844;SDS011;68195;50.854;2.860;2023-06-10T02:26:43;9.02;;;8.05;;
78844;SDS011;68195;50.854;2.860;2023-06-10T02:29:11;8.68;;;7.20;;
78844;SDS011;68195;50.854;2.860;2023-06-10T02:31:39;11.02;;;8.93;;
78844;SDS011;68195;50.854;2.860;2023-06-10T02:34:07;8.40;;;7.60;;
78844;SDS011;68195;50.854;2.860;2023-06-10T02:36:33;8.75;;;7.85;;
78844;SDS011;68195;50.854;2.860;2023-06-10T02:39:01;11.23;;;7.95;;
78844;SDS011;68195;50.854;2.860;2023-06-10T02:41:30;9.02;;;7.57;;
78844;SDS011;68195;50.854;2.860;2023-06-10T02:43:58;8.30;;;7.50;;
78844;SDS011;68195;50.854;2.860;2023-06-10T02:46:26;9.77;;;7.78;;
78844;SDS011;68195;50.854;2.860;2023-06-10T02:48:53;11.13;;;8.20;;
78844;SDS011;68195;50.854;2.860;2023-06-10T02:51:19;9.23;;;8.27;;
78844;SDS011;68195;50.854;2.860;2023-06-10T02:53:45;8.98;;;7.93;;
78844;SDS011;68195;50.854;2.860;2023-06-10T02:56:15;8.70;;;7.80;;
78844;SDS011;68195;50.854;2.860;2023-06-10T02:58:44;11.13;;;8.80;;
78844;SDS011;68195;50.854;2.860;2023-06-10T03:01:12;9.93;;;7.57;;
78844;SDS011;68195;50.854;2.860;2023-06-10T03:03:37;11.20;;;7.97;;
78844;SDS011;68195;50.854;2.860;2023-06-10T03:06:07;10.98;;;8.55;;
78844;SDS011;68195;50.854;2.860;2023-06-10T03:08:35;13.10;;;8.73;;
78844;SDS011;68195;50.854;2.860;2023-06-10T03:11:00;9.70;;;8.38;;
78844;SDS011;68195;50.854;2.860;2023-06-10T03:13:26;9.95;;;8.15;;
78844;SDS011;68195;50.854;2.860;2023-06-10T03:15:56;10.93;;;8.50;;
78844;SDS011;68195;50.854;2.860;2023-06-10T03:18:22;10.82;;;9.13;;
78844;SDS011;68195;50.854;2.860;2023-06-10T03:20:53;10.02;;;8.55;;
78844;SDS011;68195;50.854;2.860;2023-06-10T03:23:20;10.07;;;8.55;;
78844;SDS011;68195;50.854;2.860;2023-06-10T03:25:48;12.55;;;9.20;;
78844;SDS011;68195;50.854;2.860;2023-06-10T03:28:14;11.15;;;9.35;;
78844;SDS011;68195;50.854;2.860;2023-06-10T03:30:39;10.57;;;8.70;;
78844;SDS011;68195;50.854;2.860;2023-06-10T03:33:05;13.65;;;8.63;;
78844;SDS011;68195;50.854;2.860;2023-06-10T03:35:32;11.43;;;8.32;;
78844;SDS011;68195;50.854;2.860;2023-06-10T03:38:02;11.52;;;8.35;;
78844;SDS011;68195;50.854;2.860;2023-06-10T03:40:27;11.02;;;7.80;;
78844;SDS011;68195;50.854;2.860;2023-06-10T03:42:59;9.43;;;7.95;;
78844;SDS011;68195;50.854;2.860;2023-06-10T03:45:27;12.70;;;8.55;;
78844;SDS011;68195;50.854;2.860;2023-06-10T03:47:57;9.00;;;8.10;;
78844;SDS011;68195;50.854;2.860;2023-06-10T03:50:25;10.88;;;9.00;;
78844;SDS011;68195;50.854;2.860;2023-06-10T03:52:51;13.93;;;9.02;;
78844;SDS011;68195;50.854;2.860;2023-06-10T03:55:19;10.57;;;9.02;;
78844;SDS011;68195;50.854;2.860;2023-06-10T03:57:48;8.98;;;8.10;;
78844;SDS011;68195;50.854;2.860;2023-06-10T04:00:19;11.50;;;8.55;;
78844;SDS011;68195;50.854;2.860;2023-06-10T04:02:46;10.38;;;8.45;;
78844;SDS011;68195;50.854;2.860;2023-06-10T04:05:13;10.30;;;8.98;;
78844;SDS011;68195;50.854;2.860;2023-06-10T04:07:42;10.93;;;8.52;;
78844;SDS011;68195;50.854;2.860;2023-06-10T04:10:11;12.25;;;8.35;;
78844;SDS011;68195;50.854;2.860;2023-06-10T04:12:38;9.95;;;8.75;;
78844;SDS011;68195;50.854;2.860;2023-06-10T04:15:06;9.57;;;7.78;;
78844;SDS011;68195;50.854;2.860;2023-06-10T04:17:34;8.73;;;7.82;;
78844;SDS011;68195;50.854;2.860;2023-06-10T04:20:02;9.30;;;8.27;;
78844;SDS011;68195;50.854;2.860;2023-06-10T04:22:29;9.70;;;8.55;;
78844;SDS011;68195;50.854;2.860;2023-06-10T04:24:59;8.45;;;7.57;;
78844;SDS011;68195;50.854;2.860;2023-06-10T04:27:24;11.23;;;8.18;;
78844;SDS011;68195;50.854;2.860;2023-06-10T04:29:49;10.48;;;8.20;;
78844;SDS011;68195;50.854;2.860;2023-06-10T04:32:17;10.98;;;7.88;;
78844;SDS011;68195;50.854;2.860;2023-06-10T04:34:42;8.82;;;7.93;;
78844;SDS011;68195;50.854;2.860;2023-06-10T04:37:12;8.80;;;7.80;;
78844;SDS011;68195;50.854;2.860;2023-06-10T04:39:38;10.80;;;8.25;;
78844;SDS011;68195;50.854;2.860;2023-06-10T04:42:03;10.98;;;7.53;;
78844;SDS011;68195;50.854;2.860;2023-06-10T04:44:32;9.38;;;8.35;;
78844;SDS011;68195;50.854;2.860;2023-06-10T04:46:58;12.82;;;8.40;;
78844;SDS011;68195;50.854;2.860;2023-06-10T04:49:25;9.40;;;8.50;;
78844;SDS011;68195;50.854;2.860;2023-06-10T04:51:54;11.48;;;7.82;;
78844;SDS011;68195;50.854;2.860;2023-06-10T04:54:22;12.60;;;8.40;;
78844;SDS011;68195;50.854;2.860;2023-06-10T04:56:50;11.38;;;8.38;;
78844;SDS011;68195;50.854;2.860;2023-06-10T04:59:16;9.77;;;8.25;;
78844;SDS011;68195;50.854;2.860;2023-06-10T05:01:44;10.18;;;8.07;;
78844;SDS011;68195;50.854;2.860;2023-06-10T05:04:09;9.60;;;7.53;;
78844;SDS011;68195;50.854;2.860;2023-06-10T05:06:34;9.88;;;8.57;;
78844;SDS011;68195;50.854;2.860;2023-06-10T05:09:01;9.10;;;7.88;;
78844;SDS011;68195;50.854;2.860;2023-06-10T05:11:27;11.15;;;8.07;;
78844;SDS011;68195;50.854;2.860;2023-06-10T05:13:52;8.63;;;7.53;;
78844;SDS011;68195;50.854;2.860;2023-06-10T05:16:18;12.13;;;8.32;;
78844;SDS011;68195;50.854;2.860;2023-06-10T05:18:46;11.95;;;7.60;;
78844;SDS011;68195;50.854;2.860;2023-06-10T05:21:13;9.95;;;8.25;;
78844;SDS011;68195;50.854;2.860;2023-06-10T05:23:41;9.60;;;8.23;;
78844;SDS011;68195;50.854;2.860;2023-06-10T05:26:09;9.77;;;7.78;;
78844;SDS011;68195;50.854;2.860;2023-06-10T05:28:37;7.90;;;7.13;;
78844;SDS011;68195;50.854;2.860;2023-06-10T05:31:02;8.85;;;7.75;;
78844;SDS011;68195;50.854;2.860;2023-06-10T05:33:30;9.95;;;8.25;;
78844;SDS011;68195;50.854;2.860;2023-06-10T05:35:58;12.35;;;9.00;;
78844;SDS011;68195;50.854;2.860;2023-06-10T05:38:23;10.80;;;9.05;;
78844;SDS011;68195;50.854;2.860;2023-06-10T05:40:48;9.88;;;8.63;;
78844;SDS011;68195;50.854;2.860;2023-06-10T05:43:14;10.10;;;8.30;;
78844;SDS011;68195;50.854;2.860;2023-06-10T05:45:41;11.88;;;8.88;;
78844;SDS011;68195;50.854;2.860;2023-06-10T05:48:07;9.65;;;8.65;;
78844;SDS011;68195;50.854;2.860;2023-06-10T05:50:34;13.05;;;8.95;;
78844;SDS011;68195;50.854;2.860;2023-06-10T05:53:07;9.23;;;8.27;;
78844;SDS011;68195;50.854;2.860;2023-06-10T05:55:40;10.30;;;9.20;;
78844;SDS011;68195;50.854;2.860;2023-06-10T05:58:12;9.63;;;8.63;;
78844;SDS011;68195;50.854;2.860;2023-06-10T06:00:39;10.73;;;9.25;;
78844;SDS011;68195;50.854;2.860;2023-06-10T06:03:08;11.55;;;9.35;;
78844;SDS011;68195;50.854;2.860;2023-06-10T06:05:34;11.43;;;9.20;;
78844;SDS011;68195;50.854;2.860;2023-06-10T06:08:07;14.48;;;9.63;;
78844;SDS011;68195;50.854;2.860;2023-06-10T06:10:32;8.77;;;7.88;;
78844;SDS011;68195;50.854;2.860;2023-06-10T06:12:58;10.50;;;8.77;;
78844;SDS011;68195;50.854;2.860;2023-06-10T06:15:29;9.35;;;8.35;;
78844;SDS011;68195;50.854;2.860;2023-06-10T06:17:59;8.95;;;8.02;;
78844;SDS011;68195;50.854;2.860;2023-06-10T06:20:26;11.75;;;8.90;;
78844;SDS011;68195;50.854;2.860;2023-06-10T06:22:52;10.13;;;8.95;;
78844;SDS011;68195;50.854;2.860;2023-06-10T06:25:20;10.70;;;8.85;;
78844;SDS011;68195;50.854;2.860;2023-06-10T06:27:45;9.30;;;8.40;;
78844;SDS011;68195;50.854;2.860;2023-06-10T06:30:11;12.27;;;9.02;;
78844;SDS011;68195;50.854;2.860;2023-06-10T06:32:39;9.35;;;8.45;;
78844;SDS011;68195;50.854;2.860;2023-06-10T06:35:06;11.70;;;8.63;;
78844;SDS011;68195;50.854;2.860;2023-06-10T06:37:33;8.95;;;8.07;;
78844;SDS011;68195;50.854;2.860;2023-06-10T06:40:01;10.75;;;7.97;;
78844;SDS011;68195;50.854;2.860;2023-06-10T06:42:26;9.57;;;7.32;;
78844;SDS011;68195;50.854;2.860;2023-06-10T06:44:54;10.27;;;8.20;;
78844;SDS011;68195;50.854;2.860;2023-06-10T06:47:24;9.55;;;8.65;;
78844;SDS011;68195;50.854;2.860;2023-06-10T06:49:50;9.88;;;8.25;;
78844;SDS011;68195;50.854;2.860;2023-06-10T06:52:20;9.57;;;8.40;;
78844;SDS011;68195;50.854;2.860;2023-06-10T06:54:47;8.88;;;7.75;;
78844;SDS011;68195;50.854;2.860;2023-06-10T06:57:14;10.38;;;7.95;;
78844;SDS011;68195;50.854;2.860;2023-06-10T06:59:42;8.85;;;7.68;;
78844;SDS011;68195;50.854;2.860;2023-06-10T07:02:08;11.55;;;7.28;;
78844;SDS011;68195;50.854;2.860;2023-06-10T07:04:33;9.35;;;7.88;;
78844;SDS011;68195;50.854;2.860;2023-06-10T07:06:58;9.52;;;7.20;;
78844;SDS011;68195;50.854;2.860;2023-06-10T07:09:26;9.13;;;8.02;;
78844;SDS011;68195;50.854;2.860;2023-06-10T07:11:53;10.85;;;6.82;;
78844;SDS011;68195;50.854;2.860;2023-06-10T07:14:18;9.13;;;7.45;;
78844;SDS011;68195;50.854;2.860;2023-06-10T07:16:46;9.05;;;7.18;;
78844;SDS011;68195;50.854;2.860;2023-06-10T07:19:14;9.18;;;7.72;;
78844;SDS011;68195;50.854;2.860;2023-06-10T07:21:40;8.80;;;7.57;;
78844;SDS011;68195;50.854;2.860;2023-06-10T07:24:05;8.68;;;7.30;;
78844;SDS011;68195;50.854;2.860;2023-06-10T07:26:33;9.82;;;7.88;;
78844;SDS011;68195;50.854;2.860;2023-06-10T07:28:58;12.43;;;7.63;;
78844;SDS011;68195;50.854;2.860;2023-06-10T07:31:24;8.63;;;7.38;;
78844;SDS011;68195;50.854;2.860;2023-06-10T07:33:50;10.70;;;7.57;;
78844;SDS011;68195;50.854;2.860;2023-06-10T07:36:15;10.23;;;6.88;;
78844;SDS011;68195;50.854;2.860;2023-06-10T07:38:43;7.85;;;6.57;;
78844;SDS011;68195;50.854;2.860;2023-06-10T07:41:10;9.95;;;7.30;;
78844;SDS011;68195;50.854;2.860;2023-06-10T07:43:36;9.77;;;6.97;;
78844;SDS011;68195;50.854;2.860;2023-06-10T07:46:02;9.20;;;7.00;;
78844;SDS011;68195;50.854;2.860;2023-06-10T07:48:31;8.95;;;7.43;;
78844;SDS011;68195;50.854;2.860;2023-06-10T07:50:56;8.00;;;7.22;;
78844;SDS011;68195;50.854;2.860;2023-06-10T07:53:22;8.20;;;7.13;;
78844;SDS011;68195;50.854;2.860;2023-06-10T07:55:47;7.72;;;6.55;;
78844;SDS011;68195;50.854;2.860;2023-06-10T07:58:14;8.50;;;6.78;;
78844;SDS011;68195;50.854;2.860;2023-06-10T08:00:40;8.25;;;7.05;;
78844;SDS011;68195;50.854;2.860;2023-06-10T08:03:05;8.20;;;7.00;;
78844;SDS011;68195;50.854;2.860;2023-06-10T08:05:31;8.73;;;7.10;;
78844;SDS011;68195;50.854;2.860;2023-06-10T08:07:56;7.47;;;6.22;;
78844;SDS011;68195;50.854;2.860;2023-06-10T08:10:22;7.93;;;7.13;;
78844;SDS011;68195;50.854;2.860;2023-06-10T08:12:50;8.85;;;7.00;;
78844;SDS011;68195;50.854;2.860;2023-06-10T08:15:15;7.55;;;6.75;;
78844;SDS011;68195;50.854;2.860;2023-06-10T08:17:43;8.55;;;7.13;;
78844;SDS011;68195;50.854;2.860;2023-06-10T08:20:11;6.93;;;6.22;;
78844;SDS011;68195;50.854;2.860;2023-06-10T08:22:37;8.63;;;7.13;;
78844;SDS011;68195;50.854;2.860;2023-06-10T08:25:05;11.00;;;7.35;;
78844;SDS011;68195;50.854;2.860;2023-06-10T08:27:31;9.02;;;6.55;;
78844;SDS011;68195;50.854;2.860;2023-06-10T08:29:56;7.72;;;6.95;;
78844;SDS011;68195;50.854;2.860;2023-06-10T08:32:23;8.00;;;6.97;;
78844;SDS011;68195;50.854;2.860;2023-06-10T08:34:48;7.15;;;6.45;;
78844;SDS011;68195;50.854;2.860;2023-06-10T08:37:13;9.07;;;6.80;;
78844;SDS011;68195;50.854;2.860;2023-06-10T08:39:41;7.88;;;6.70;;
78844;SDS011;68195;50.854;2.860;2023-06-10T08:42:51;8.30;;;6.95;;
78844;SDS011;68195;50.854;2.860;2023-06-10T08:45:04;7.95;;;7.05;;
78844;SDS011;68195;50.854;2.860;2023-06-10T08:47:34;6.88;;;6.28;;
78844;SDS011;68195;50.854;2.860;2023-06-10T08:50:04;8.48;;;6.90;;
78844;SDS011;68195;50.854;2.860;2023-06-10T08:52:36;8.13;;;7.32;;
78844;SDS011;68195;50.854;2.860;2023-06-10T08:55:12;8.00;;;7.20;;
78844;SDS011;68195;50.854;2.860;2023-06-10T08:57:43;8.32;;;6.78;;
78844;SDS011;68195;50.854;2.860;2023-06-10T09:00:10;7.82;;;7.05;;
78844;SDS011;68195;50.854;2.860;2023-06-10T09:02:38;6.97;;;5.70;;
78844;SDS011;68195;50.854;2.860;2023-06-10T09:05:04;7.85;;;7.05;;
78844;SDS011;68195;50.854;2.860;2023-06-10T09:07:30;8.40;;;6.28;;
78844;SDS011;68195;50.854;2.860;2023-06-10T09:10:06;7.20;;;6.50;;
78844;SDS011;68195;50.854;2.860;2023-06-10T09:12:32;8.98;;;6.38;;
78844;SDS011;68195;50.854;2.860;2023-06-10T09:15:01;8.18;;;6.68;;
78844;SDS011;68195;50.854;2.860;2023-06-10T09:17:29;7.63;;;6.82;;
78844;SDS011;68195;50.854;2.860;2023-06-10T09:19:55;8.45;;;6.90;;
78844;SDS011;68195;50.854;2.860;2023-06-10T09:22:22;7.75;;;6.47;;
78844;SDS011;68195;50.854;2.860;2023-06-10T09:24:48;8.82;;;6.35;;
78844;SDS011;68195;50.854;2.860;2023-06-10T09:27:13;7.28;;;6.30;;
78844;SDS011;68195;50.854;2.860;2023-06-10T09:29:52;8.30;;;6.30;;
78844;SDS011;68195;50.854;2.860;2023-06-10T09:32:19;7.93;;;7.03;;
78844;SDS011;68195;50.854;2.860;2023-06-10T09:34:46;7.03;;;6.30;;
78844;SDS011;68195;50.854;2.860;2023-06-10T09:37:15;7.65;;;6.82;;
78844;SDS011;68195;50.854;2.860;2023-06-10T09:39:45;7.43;;;6.68;;
78844;SDS011;68195;50.854;2.860;2023-06-10T09:42:32;7.57;;;6.82;;
78844;SDS011;68195;50.854;2.860;2023-06-10T09:45:00;6.95;;;6.25;;
78844;SDS011;68195;50.854;2.860;2023-06-10T09:47:25;11.10;;;6.20;;
78844;SDS011;68195;50.854;2.860;2023-06-10T09:49:50;7.43;;;6.28;;
78844;SDS011;68195;50.854;2.860;2023-06-10T09:52:25;7.43;;;6.70;;
78844;SDS011;68195;50.854;2.860;2023-06-10T09:55:02;7.97;;;5.95;;
78844;SDS011;68195;50.854;2.860;2023-06-10T09:57:31;7.18;;;6.15;;
78844;SDS011;68195;50.854;2.860;2023-06-10T10:00:04;6.95;;;6.35;;
78844;SDS011;68195;50.854;2.860;2023-06-10T10:02:37;8.70;;;6.65;;
78844;SDS011;68195;50.854;2.860;2023-06-10T10:05:09;10.90;;;6.90;;
78844;SDS011;68195;50.854;2.860;2023-06-10T10:07:34;7.45;;;6.75;;
78844;SDS011;68195;50.854;2.860;2023-06-10T10:10:00;7.93;;;6.45;;
78844;SDS011;68195;50.854;2.860;2023-06-10T10:12:26;7.90;;;7.03;;
78844;SDS011;68195;50.854;2.860;2023-06-10T10:14:52;7.30;;;6.60;;
78844;SDS011;68195;50.854;2.860;2023-06-10T10:17:20;7.53;;;6.82;;
78844;SDS011;68195;50.854;2.860;2023-06-10T10:19:53;7.65;;;6.95;;
78844;SDS011;68195;50.854;2.860;2023-06-10T10:22:26;7.20;;;6.50;;
78844;SDS011;68195;50.854;2.860;2023-06-10T10:24:58;6.45;;;5.85;;
78844;SDS011;68195;50.854;2.860;2023-06-10T10:27:27;9.80;;;6.97;;
78844;SDS011;68195;50.854;2.860;2023-06-10T10:29:58;7.30;;;6.00;;
78844;SDS011;68195;50.854;2.860;2023-06-10T10:32:32;7.63;;;6.88;;
78844;SDS011;68195;50.854;2.860;2023-06-10T10:35:21;7.32;;;6.63;;
78844;SDS011;68195;50.854;2.860;2023-06-10T10:37:50;7.40;;;6.70;;
78844;SDS011;68195;50.854;2.860;2023-06-10T10:40:17;8.68;;;7.28;;
78844;SDS011;68195;50.854;2.860;2023-06-10T10:42:45;8.05;;;6.72;;
78844;SDS011;68195;50.854;2.860;2023-06-10T10:45:13;8.15;;;7.38;;
78844;SDS011;68195;50.854;2.860;2023-06-10T10:47:38;7.40;;;6.57;;
78844;SDS011;68195;50.854;2.860;2023-06-10T10:50:13;7.28;;;6.40;;
78844;SDS011;68195;50.854;2.860;2023-06-10T10:52:54;7.30;;;6.60;;
78844;SDS011;68195;50.854;2.860;2023-06-10T10:55:23;6.85;;;6.22;;
78844;SDS011;68195;50.854;2.860;2023-06-10T10:58:04;7.60;;;6.72;;
78844;SDS011;68195;50.854;2.860;2023-06-10T11:02:58;6.57;;;5.97;;
78844;SDS011;68195;50.854;2.860;2023-06-10T11:08:05;9.57;;;5.57;;
78844;SDS011;68195;50.854;2.860;2023-06-10T11:10:35;6.07;;;5.45;;
78844;SDS011;68195;50.854;2.860;2023-06-10T11:13:12;6.75;;;5.85;;
78844;SDS011;68195;50.854;2.860;2023-06-10T11:15:45;7.60;;;5.85;;
78844;SDS011;68195;50.854;2.860;2023-06-10T11:18:19;6.38;;;5.88;;
78844;SDS011;68195;50.854;2.860;2023-06-10T11:31:27;6.55;;;5.85;;
78844;SDS011;68195;50.854;2.860;2023-06-10T11:34:00;7.18;;;5.40;;
78844;SDS011;68195;50.854;2.860;2023-06-10T11:36:30;5.50;;;4.97;;
78844;SDS011;68195;50.854;2.860;2023-06-10T11:39:02;6.18;;;5.18;;
78844;SDS011;68195;50.854;2.860;2023-06-10T11:41:33;6.78;;;5.45;;
78844;SDS011;68195;50.854;2.860;2023-06-10T11:44:03;5.32;;;4.70;;
78844;SDS011;68195;50.854;2.860;2023-06-10T11:46:34;5.65;;;4.90;;
78844;SDS011;68195;50.854;2.860;2023-06-10T11:49:00;8.32;;;5.25;;
78844;SDS011;68195;50.854;2.860;2023-06-10T11:51:33;6.63;;;5.22;;
78844;SDS011;68195;50.854;2.860;2023-06-10T11:54:03;8.55;;;5.05;;
78844;SDS011;68195;50.854;2.860;2023-06-10T11:56:29;10.23;;;6.55;;
78844;SDS011;68195;50.854;2.860;2023-06-10T11:58:56;5.70;;;5.20;;
78844;SDS011;68195;50.854;2.860;2023-06-10T12:01:23;5.78;;;5.18;;
78844;SDS011;68195;50.854;2.860;2023-06-10T12:04:05;7.10;;;5.03;;
78844;SDS011;68195;50.854;2.860;2023-06-10T12:07:04;6.93;;;5.68;;
78844;SDS011;68195;50.854;2.860;2023-06-10T12:09:23;6.15;;;5.55;;
78844;SDS011;68195;50.854;2.860;2023-06-10T12:12:02;6.45;;;5.90;;
78844;SDS011;68195;50.854;2.860;2023-06-10T12:17:20;7.90;;;5.63;;
78844;SDS011;68195;50.854;2.860;2023-06-10T12:19:47;5.93;;;5.32;;
78844;SDS011;68195;50.854;2.860;2023-06-10T12:22:16;6.28;;;5.68;;
78844;SDS011;68195;50.854;2.860;2023-06-10T12:25:00;6.20;;;5.63;;
78844;SDS011;68195;50.854;2.860;2023-06-10T12:27:30;6.40;;;5.45;;
78844;SDS011;68195;50.854;2.860;2023-06-10T12:29:57;8.25;;;5.97;;
78844;SDS011;68195;50.854;2.860;2023-06-10T12:32:37;11.38;;;5.57;;
78844;SDS011;68195;50.854;2.860;2023-06-10T12:35:08;6.30;;;5.60;;
78844;SDS011;68195;50.854;2.860;2023-06-10T12:37:34;6.00;;;5.07;;
78844;SDS011;68195;50.854;2.860;2023-06-10T12:40:03;5.72;;;5.20;;
78844;SDS011;68195;50.854;2.860;2023-06-10T12:42:35;5.90;;;5.30;;
78844;SDS011;68195;50.854;2.860;2023-06-10T12:45:02;6.82;;;5.03;;
78844;SDS011;68195;50.854;2.860;2023-06-10T12:47:35;7.38;;;6.30;;
78844;SDS011;68195;50.854;2.860;2023-06-10T12:50:05;6.78;;;5.20;;
78844;SDS011;68195;50.854;2.860;2023-06-10T12:52:30;5.35;;;4.80;;
78844;SDS011;68195;50.854;2.860;2023-06-10T12:54:57;6.60;;;4.80;;
78844;SDS011;68195;50.854;2.860;2023-06-10T12:57:23;5.50;;;5.00;;
78844;SDS011;68195;50.854;2.860;2023-06-10T12:59:49;6.78;;;5.15;;
78844;SDS011;68195;50.854;2.860;2023-06-10T13:02:17;6.25;;;4.90;;
78844;SDS011;68195;50.854;2.860;2023-06-10T13:04:52;5.50;;;4.75;;
78844;SDS011;68195;50.854;2.860;2023-06-10T13:07:17;4.53;;;4.13;;
78844;SDS011;68195;50.854;2.860;2023-06-10T13:09:43;6.82;;;4.85;;
78844;SDS011;68195;50.854;2.860;2023-06-10T13:12:13;6.43;;;4.65;;
78844;SDS011;68195;50.854;2.860;2023-06-10T13:14:42;6.68;;;4.93;;
78844;SDS011;68195;50.854;2.860;2023-06-10T13:17:08;5.55;;;5.05;;
78844;SDS011;68195;50.854;2.860;2023-06-10T13:19:33;5.50;;;4.93;;
78844;SDS011;68195;50.854;2.860;2023-06-10T13:21:59;6.97;;;5.40;;
78844;SDS011;68195;50.854;2.860;2023-06-10T13:24:24;8.77;;;5.45;;
78844;SDS011;68195;50.854;2.860;2023-06-10T13:26:51;6.78;;;5.65;;
78844;SDS011;68195;50.854;2.860;2023-06-10T13:29:19;10.70;;;5.10;;
78844;SDS011;68195;50.854;2.860;2023-06-10T13:31:45;6.07;;;4.82;;
78844;SDS011;68195;50.854;2.860;2023-06-10T13:34:10;7.10;;;5.00;;
78844;SDS011;68195;50.854;2.860;2023-06-10T13:36:38;5.72;;;5.10;;
78844;SDS011;68195;50.854;2.860;2023-06-10T13:39:03;5.53;;;5.03;;
78844;SDS011;68195;50.854;2.860;2023-06-10T13:41:32;5.78;;;5.28;;
78844;SDS011;68195;50.854;2.860;2023-06-10T13:43:57;6.43;;;5.47;;
78844;SDS011;68195;50.854;2.860;2023-06-10T13:46:28;6.10;;;5.28;;
78844;SDS011;68195;50.854;2.860;2023-06-10T13:48:56;6.72;;;5.45;;
78844;SDS011;68195;50.854;2.860;2023-06-10T13:51:24;5.95;;;5.22;;
78844;SDS011;68195;50.854;2.860;2023-06-10T13:53:51;8.80;;;5.63;;
78844;SDS011;68195;50.854;2.860;2023-06-10T13:56:19;6.75;;;5.63;;
78844;SDS011;68195;50.854;2.860;2023-06-10T13:58:47;7.25;;;5.15;;
78844;SDS011;68195;50.854;2.860;2023-06-10T14:01:16;6.53;;;5.43;;
78844;SDS011;68195;50.854;2.860;2023-06-10T14:03:42;6.18;;;5.13;;
78844;SDS011;68195;50.854;2.860;2023-06-10T14:06:07;6.32;;;5.30;;
78844;SDS011;68195;50.854;2.860;2023-06-10T14:08:40;9.25;;;5.43;;
78844;SDS011;68195;50.854;2.860;2023-06-10T14:11:08;7.00;;;5.35;;
78844;SDS011;68195;50.854;2.860;2023-06-10T14:13:33;6.40;;;5.30;;
78844;SDS011;68195;50.854;2.860;2023-06-10T14:16:03;6.97;;;5.35;;
78844;SDS011;68195;50.854;2.860;2023-06-10T14:18:29;6.28;;;5.32;;
78844;SDS011;68195;50.854;2.860;2023-06-10T14:20:55;6.68;;;5.97;;
78844;SDS011;68195;50.854;2.860;2023-06-10T14:23:20;6.30;;;5.70;;
78844;SDS011;68195;50.854;2.860;2023-06-10T14:25:46;5.80;;;5.30;;
78844;SDS011;68195;50.854;2.860;2023-06-10T14:28:11;6.78;;;5.53;;
78844;SDS011;68195;50.854;2.860;2023-06-10T14:30:36;5.78;;;4.72;;
78844;SDS011;68195;50.854;2.860;2023-06-10T14:33:02;7.55;;;5.28;;
78844;SDS011;68195;50.854;2.860;2023-06-10T14:35:27;5.90;;;5.10;;
78844;SDS011;68195;50.854;2.860;2023-06-10T14:37:55;6.00;;;4.93;;
78844;SDS011;68195;50.854;2.860;2023-06-10T14:40:23;5.85;;;5.25;;
78844;SDS011;68195;50.854;2.860;2023-06-10T14:42:49;5.50;;;5.00;;
78844;SDS011;68195;50.854;2.860;2023-06-10T14:45:15;5.53;;;4.60;;
78844;SDS011;68195;50.854;2.860;2023-06-10T14:47:40;5.65;;;5.00;;
78844;SDS011;68195;50.854;2.860;2023-06-10T14:50:08;6.35;;;5.57;;
78844;SDS011;68195;50.854;2.860;2023-06-10T14:52:34;6.22;;;5.45;;
78844;SDS011;68195;50.854;2.860;2023-06-10T14:55:01;5.65;;;5.15;;
78844;SDS011;68195;50.854;2.860;2023-06-10T14:57:29;7.35;;;5.05;;
78844;SDS011;68195;50.854;2.860;2023-06-10T15:00:02;6.95;;;5.07;;
78844;SDS011;68195;50.854;2.860;2023-06-10T15:02:31;6.65;;;5.00;;
78844;SDS011;68195;50.854;2.860;2023-06-10T15:05:02;6.10;;;5.50;;
78844;SDS011;68195;50.854;2.860;2023-06-10T15:07:28;7.97;;;4.82;;
78844;SDS011;68195;50.854;2.860;2023-06-10T15:09:53;7.00;;;4.72;;
78844;SDS011;68195;50.854;2.860;2023-06-10T15:12:19;6.55;;;5.13;;
78844;SDS011;68195;50.854;2.860;2023-06-10T15:14:46;6.18;;;4.82;;